Pagina principale
METAR-TAF:

METAR-TAF

Aeroporti :

Aeroporto di Cuneo-Levaldigi

Cuneo, Italia

latitudine: 44-32-47N, longitudine: 007-37-20E, altezza: 386 m

Osservazione

Il bollettino è stato emesso 34 minuti fa, alle 13:50 UTC
Vento 3 kt da direzioni variabili
Temperature 23°C
Umidità 29%
Pressione 999 hPa
Visibilità 10 km o più

METAR: LIMZ 271350Z AUTO VRB03KT 9999 NCD 23/04 Q0999

Ora: 16:24 (14:24 UTC)

Previsione

Il bollettino è stato emesso 3 ore e 24 minuti fa, alle 11:00 UTC
Previsione valida dal 27 alle 12 UTC al 28 alle 12 UTC
Vento 5 kt da direzioni variabili
Visibilità 10 km o più
nessuna nube inferiore a 1500 m e nessun cumulonembo

TAF: LIMZ 271100Z 2712/2812 VRB05KT CAVOK

Osservazioni e previsioni meteorologiche di più di 4000 aeroporti (messaggi METAR e TAF).

Le stazioni disponibili sono rappresentate dai dischi gialli e rossi sulla carta.

Puntare il mouse per vedere il nome della stazione.

Clicca sopra per visualizzare le osservazioni e previsioni meteorologiche.

Per cambiare la mappa : fare clic sui pulsanti verdi con una croce nera per ingrandire, il pulsante verde con un trattino per diminuire, o sulla freccia verde per le mappe adiacenti.


METAR-TAF: